createdAt,value
2018-10-16T00:00:22.777Z,962.70
2018-10-16T00:01:22.710Z,962.72
2018-10-16T00:02:22.651Z,962.74
2018-10-16T00:03:22.583Z,962.74
2018-10-16T00:04:22.522Z,962.76
2018-10-16T00:05:22.457Z,962.81
2018-10-16T00:06:22.394Z,962.79
2018-10-16T00:07:22.335Z,962.78
2018-10-16T00:08:22.269Z,962.76
2018-10-16T00:09:22.205Z,962.72
2018-10-16T00:10:22.146Z,962.74
2018-10-16T00:11:22.081Z,962.73
2018-10-16T00:12:22.021Z,962.76
2018-10-16T00:13:21.952Z,962.78
2018-10-16T00:14:21.889Z,962.81
2018-10-16T00:15:21.826Z,962.81
2018-10-16T00:16:21.765Z,962.82
2018-10-16T00:17:21.705Z,962.79
2018-10-16T00:18:21.637Z,962.75
2018-10-16T00:19:21.575Z,962.81
2018-10-16T00:20:21.512Z,962.78
2018-10-16T00:21:21.449Z,962.77
2018-10-16T00:22:21.384Z,962.78
2018-10-16T00:23:21.323Z,962.84
2018-10-16T00:24:21.259Z,962.78
2018-10-16T00:25:21.204Z,962.76
2018-10-16T00:26:21.140Z,962.77
2018-10-16T00:27:21.068Z,962.76
2018-10-16T00:28:21.008Z,962.78
2018-10-16T00:29:20.946Z,962.77
2018-10-16T00:30:20.879Z,962.80
2018-10-16T00:31:20.824Z,962.82
2018-10-16T00:32:20.754Z,962.80
2018-10-16T00:33:20.701Z,962.83
2018-10-16T00:34:20.628Z,962.79
2018-10-16T00:35:20.571Z,962.80
2018-10-16T00:36:20.500Z,962.79
2018-10-16T00:37:20.439Z,962.79
2018-10-16T00:38:20.378Z,962.81
2018-10-16T00:39:20.310Z,962.78
2018-10-16T00:40:20.248Z,962.76
2018-10-16T00:41:20.277Z,962.80
2018-10-16T00:42:20.123Z,962.80
2018-10-16T00:43:20.082Z,962.81
2018-10-16T00:44:19.996Z,962.82
2018-10-16T00:45:20.024Z,962.84
2018-10-16T00:46:19.870Z,962.82
2018-10-16T00:47:19.806Z,962.82
2018-10-16T00:48:19.744Z,962.77
2018-10-16T00:49:19.683Z,962.77
2018-10-16T00:50:19.620Z,962.75
2018-10-16T00:51:19.555Z,962.78
2018-10-16T00:52:19.489Z,962.79
2018-10-16T00:53:19.427Z,962.78
2018-10-16T00:54:19.362Z,962.78
2018-10-16T00:55:19.303Z,962.81
2018-10-16T00:56:19.238Z,962.78
2018-10-16T00:57:19.174Z,962.81
2018-10-16T00:58:19.110Z,962.80
2018-10-16T00:59:19.047Z,962.82
2018-10-16T01:00:18.985Z,962.83
2018-10-16T01:01:18.925Z,962.84
2018-10-16T01:02:18.858Z,962.82
2018-10-16T01:03:18.791Z,962.84
2018-10-16T01:04:18.771Z,962.87
2018-10-16T01:05:18.672Z,962.81
2018-10-16T01:06:18.603Z,962.83
2018-10-16T01:07:18.539Z,962.83
2018-10-16T01:08:18.513Z,962.87
2018-10-16T01:09:18.431Z,962.86
2018-10-16T01:10:18.352Z,962.87
2018-10-16T01:11:18.285Z,962.88
2018-10-16T01:12:18.226Z,962.87
2018-10-16T01:13:18.225Z,962.90
2018-10-16T01:14:18.101Z,962.90
2018-10-16T01:15:18.036Z,962.90
2018-10-16T01:16:17.978Z,962.96
2018-10-16T01:17:17.910Z,962.95
2018-10-16T01:18:17.846Z,962.93
2018-10-16T01:19:17.786Z,962.94
2018-10-16T01:20:17.737Z,962.91
2018-10-16T01:21:17.656Z,962.95
2018-10-16T01:22:17.594Z,962.94
2018-10-16T01:23:17.530Z,962.96
2018-10-16T01:24:17.473Z,962.97
2018-10-16T01:25:17.405Z,962.95
2018-10-16T01:26:17.341Z,962.95
2018-10-16T01:27:17.278Z,962.97
2018-10-16T01:28:17.223Z,962.95
2018-10-16T01:29:17.151Z,962.93
2018-10-16T01:30:17.085Z,962.96
2018-10-16T01:31:17.033Z,962.93
2018-10-16T01:32:16.962Z,962.93
2018-10-16T01:33:16.903Z,962.93
2018-10-16T01:34:16.832Z,962.94
2018-10-16T01:35:16.771Z,962.97
2018-10-16T01:36:16.706Z,962.94
2018-10-16T01:37:16.645Z,962.97
2018-10-16T01:38:16.584Z,962.99
2018-10-16T01:39:16.517Z,962.99
2018-10-16T01:40:16.455Z,962.95
2018-10-16T01:41:16.394Z,962.98
2018-10-16T01:42:16.327Z,962.98
2018-10-16T01:43:16.263Z,962.94
2018-10-16T01:44:16.204Z,962.92
2018-10-16T01:45:16.140Z,962.94
2018-10-16T01:46:16.076Z,962.94
2018-10-16T01:47:16.011Z,962.92
2018-10-16T01:48:15.947Z,962.88
2018-10-16T01:49:15.886Z,962.92
2018-10-16T01:50:15.842Z,962.89
2018-10-16T01:51:15.756Z,962.86
2018-10-16T01:52:15.694Z,962.90
2018-10-16T01:53:15.630Z,962.91
2018-10-16T01:54:15.573Z,962.92
2018-10-16T01:55:15.506Z,962.89
2018-10-16T01:56:15.440Z,962.89
2018-10-16T01:57:15.395Z,962.90
2018-10-16T01:58:15.318Z,962.91
2018-10-16T01:59:15.264Z,962.92
2018-10-16T02:00:15.188Z,962.91
2018-10-16T02:01:15.141Z,962.92
2018-10-16T02:02:15.062Z,962.94
2018-10-16T02:03:14.997Z,962.95
2018-10-16T02:04:14.934Z,962.94
2018-10-16T02:05:14.872Z,962.94
2018-10-16T02:06:14.807Z,962.94
2018-10-16T02:07:14.745Z,962.95
2018-10-16T02:08:14.681Z,962.94
2018-10-16T02:09:14.617Z,962.89
2018-10-16T02:10:14.554Z,962.96
2018-10-16T02:11:14.492Z,962.94
2018-10-16T02:12:14.432Z,962.94
2018-10-16T02:13:14.363Z,962.96
2018-10-16T02:14:14.302Z,963.00
2018-10-16T02:15:14.237Z,962.99
2018-10-16T02:16:14.176Z,962.98
2018-10-16T02:17:14.110Z,962.97
2018-10-16T02:18:14.051Z,962.99
2018-10-16T02:19:13.986Z,962.98
2018-10-16T02:20:13.919Z,962.97
2018-10-16T02:21:13.861Z,963.01
2018-10-16T02:22:13.793Z,963.03
2018-10-16T02:23:13.731Z,963.00
2018-10-16T02:24:13.672Z,963.07
2018-10-16T02:25:13.605Z,963.05
2018-10-16T02:26:13.541Z,963.03
2018-10-16T02:27:13.477Z,963.07
2018-10-16T02:28:13.415Z,963.09
2018-10-16T02:29:13.353Z,963.11
2018-10-16T02:30:13.288Z,963.07
2018-10-16T02:31:13.224Z,963.08
2018-10-16T02:32:13.161Z,963.08
2018-10-16T02:33:13.097Z,963.10
2018-10-16T02:34:13.033Z,963.11
2018-10-16T02:35:12.975Z,963.07
2018-10-16T02:36:12.912Z,963.09
2018-10-16T02:37:12.845Z,963.08
2018-10-16T02:38:12.779Z,963.05
2018-10-16T02:39:12.722Z,963.04
2018-10-16T02:40:12.654Z,963.06
2018-10-16T02:41:12.592Z,963.07
2018-10-16T02:42:12.526Z,963.07
2018-10-16T02:43:12.464Z,963.10
2018-10-16T02:44:12.400Z,963.07
2018-10-16T02:45:12.345Z,963.07
2018-10-16T02:46:12.272Z,963.07
2018-10-16T02:47:12.213Z,963.09
2018-10-16T02:48:12.146Z,963.09
2018-10-16T02:49:12.085Z,963.10
2018-10-16T02:50:12.019Z,963.13
2018-10-16T02:51:11.956Z,963.12
2018-10-16T02:52:11.895Z,963.17
2018-10-16T02:53:11.831Z,963.15
2018-10-16T02:54:11.768Z,963.22
2018-10-16T02:55:11.704Z,963.19
2018-10-16T02:56:11.640Z,963.14
2018-10-16T02:57:11.579Z,963.17
2018-10-16T02:58:11.511Z,963.15
2018-10-16T02:59:11.448Z,963.15
2018-10-16T03:00:11.390Z,963.21
2018-10-16T03:02:11.259Z,963.22
2018-10-16T03:03:11.197Z,963.19
2018-10-16T03:04:11.132Z,963.19
2018-10-16T03:05:11.069Z,963.23
2018-10-16T03:06:11.005Z,963.20
2018-10-16T03:07:10.943Z,963.23
2018-10-16T03:08:10.879Z,963.21
2018-10-16T03:09:10.813Z,963.27
2018-10-16T03:10:10.750Z,963.28
2018-10-16T03:11:10.691Z,963.26
2018-10-16T03:12:10.622Z,963.29
2018-10-16T03:13:10.560Z,963.31
2018-10-16T03:14:10.496Z,963.28
2018-10-16T03:15:10.438Z,963.30
2018-10-16T03:16:10.369Z,963.30
2018-10-16T03:17:10.307Z,963.32
2018-10-16T03:18:10.245Z,963.33
2018-10-16T03:19:10.179Z,963.28
2018-10-16T03:20:10.117Z,963.30
2018-10-16T03:21:10.053Z,963.34
2018-10-16T03:22:09.984Z,963.30
2018-10-16T03:23:09.926Z,963.34
2018-10-16T03:24:09.872Z,963.33
2018-10-16T03:25:09.800Z,963.35
2018-10-16T03:26:09.733Z,963.35
2018-10-16T03:27:09.670Z,963.36
2018-10-16T03:28:09.610Z,963.33
2018-10-16T03:29:09.544Z,963.34
2018-10-16T03:30:09.485Z,963.36
2018-10-16T03:31:09.417Z,963.36
2018-10-16T03:32:09.353Z,963.36
2018-10-16T03:33:09.289Z,963.37
2018-10-16T03:34:09.225Z,963.40
2018-10-16T03:35:09.163Z,963.41
2018-10-16T03:36:09.099Z,963.38
2018-10-16T03:37:09.037Z,963.43
2018-10-16T03:38:08.966Z,963.41
2018-10-16T03:39:08.907Z,963.39
2018-10-16T03:40:08.844Z,963.43
2018-10-16T03:41:08.779Z,963.46
2018-10-16T03:42:08.716Z,963.44
2018-10-16T03:43:08.655Z,963.38
2018-10-16T03:44:08.592Z,963.39
2018-10-16T03:45:08.526Z,963.42
2018-10-16T03:46:08.459Z,963.48
2018-10-16T03:47:08.399Z,963.42
2018-10-16T03:48:08.337Z,963.48
2018-10-16T03:49:08.305Z,963.52
2018-10-16T03:50:08.207Z,963.49
2018-10-16T03:51:08.144Z,963.44
2018-10-16T03:52:08.090Z,963.50
2018-10-16T03:53:08.017Z,963.52
2018-10-16T03:54:07.952Z,963.47
2018-10-16T03:55:07.889Z,963.50
2018-10-16T03:56:07.824Z,963.53
2018-10-16T03:57:07.824Z,963.52
2018-10-16T03:58:07.699Z,963.52
2018-10-16T03:59:07.640Z,963.59
2018-10-16T04:00:07.581Z,963.52
2018-10-16T04:01:07.509Z,963.57
2018-10-16T04:02:07.453Z,963.59
2018-10-16T04:03:07.386Z,963.60
2018-10-16T04:04:07.316Z,963.62
2018-10-16T04:05:07.253Z,963.62
2018-10-16T04:06:07.190Z,963.65
2018-10-16T04:07:07.125Z,963.66
2018-10-16T04:08:07.063Z,963.65
2018-10-16T04:09:06.997Z,963.66
2018-10-16T04:10:06.934Z,963.70
2018-10-16T04:11:06.872Z,963.72
2018-10-16T04:12:06.808Z,963.67
2018-10-16T04:13:06.747Z,963.71
2018-10-16T04:14:06.768Z,963.72
2018-10-16T04:15:06.616Z,963.72
2018-10-16T04:16:06.556Z,963.73
2018-10-16T04:17:06.490Z,963.73
2018-10-16T04:18:06.424Z,963.75
2018-10-16T04:19:06.356Z,963.76
2018-10-16T04:20:06.301Z,963.75
2018-10-16T04:21:06.236Z,963.72
2018-10-16T04:22:06.169Z,963.83
2018-10-16T04:23:06.108Z,963.78
2018-10-16T04:24:06.044Z,963.75
2018-10-16T04:25:05.981Z,963.83
2018-10-16T04:26:05.915Z,963.82
2018-10-16T04:27:05.854Z,963.85
2018-10-16T04:28:05.790Z,963.85
2018-10-16T04:29:05.741Z,963.88
2018-10-16T04:30:05.664Z,963.88
2018-10-16T04:31:05.596Z,963.87
2018-10-16T04:32:05.531Z,963.93
2018-10-16T04:33:05.471Z,963.95
2018-10-16T04:34:05.406Z,963.95
2018-10-16T04:35:05.350Z,963.97
2018-10-16T04:36:05.279Z,963.97
2018-10-16T04:37:05.215Z,963.92
2018-10-16T04:38:05.164Z,963.93
2018-10-16T04:39:05.086Z,963.92
2018-10-16T04:40:05.027Z,963.88
2018-10-16T04:41:04.961Z,963.94
2018-10-16T04:42:04.897Z,963.97
2018-10-16T04:43:04.831Z,963.92
2018-10-16T04:44:04.769Z,963.96
2018-10-16T04:45:04.706Z,963.98
2018-10-16T04:46:04.651Z,963.98
2018-10-16T04:47:04.582Z,963.97
2018-10-16T04:48:04.523Z,963.99
2018-10-16T04:49:04.450Z,964.01
2018-10-16T04:50:04.384Z,964.03
2018-10-16T04:51:04.336Z,964.00
2018-10-16T04:52:04.261Z,964.01
2018-10-16T04:53:04.195Z,963.98
2018-10-16T04:54:04.151Z,964.00
2018-10-16T04:55:04.101Z,964.02
2018-10-16T04:56:04.002Z,964.00
2018-10-16T04:57:03.943Z,963.98
2018-10-16T04:58:03.873Z,964.00
2018-10-16T04:59:03.811Z,963.97
2018-10-16T05:00:03.751Z,963.98
2018-10-16T05:01:03.700Z,963.99
2018-10-16T05:02:03.616Z,964.00
2018-10-16T05:03:03.559Z,964.00
2018-10-16T05:04:03.562Z,964.01
2018-10-16T05:05:03.426Z,964.06
2018-10-16T05:06:03.365Z,964.03
2018-10-16T05:07:03.301Z,964.02
2018-10-16T05:08:03.249Z,964.07
2018-10-16T05:09:03.174Z,964.04
2018-10-16T05:10:03.108Z,964.08
2018-10-16T05:11:03.045Z,964.09
2018-10-16T05:12:02.983Z,964.08
2018-10-16T05:13:02.975Z,964.08
2018-10-16T05:14:02.853Z,964.14
2018-10-16T05:15:02.789Z,964.13
2018-10-16T05:16:02.727Z,964.15
2018-10-16T05:17:02.661Z,964.19
2018-10-16T05:18:02.604Z,964.17
2018-10-16T05:19:02.549Z,964.20
2018-10-16T05:20:02.475Z,964.23
2018-10-16T05:21:02.408Z,964.24
2018-10-16T05:22:02.339Z,964.27
2018-10-16T05:23:02.280Z,964.24
2018-10-16T05:24:02.213Z,964.24
2018-10-16T05:25:02.153Z,964.26
2018-10-16T05:26:02.088Z,964.31
2018-10-16T05:27:02.023Z,964.29
2018-10-16T05:28:01.960Z,964.28
2018-10-16T05:29:01.897Z,964.31
2018-10-16T05:30:01.833Z,964.31
2018-10-16T05:31:01.797Z,964.32
2018-10-16T05:32:01.702Z,964.32
2018-10-16T05:33:01.648Z,964.34
2018-10-16T05:34:01.575Z,964.36
2018-10-16T05:35:01.512Z,964.35
2018-10-16T05:36:01.450Z,964.34
2018-10-16T05:37:01.388Z,964.38
2018-10-16T05:38:01.321Z,964.38
2018-10-16T05:39:01.300Z,964.43
2018-10-16T05:40:01.193Z,964.41
2018-10-16T05:41:01.129Z,964.43
2018-10-16T05:42:01.066Z,964.43
2018-10-16T05:43:01.001Z,964.43
2018-10-16T05:44:00.938Z,964.47
2018-10-16T05:45:00.874Z,964.48
2018-10-16T05:46:00.808Z,964.53
2018-10-16T05:47:00.747Z,964.49
2018-10-16T05:48:00.682Z,964.55
2018-10-16T05:49:00.617Z,964.45
2018-10-16T05:50:00.555Z,964.48
2018-10-16T05:51:00.492Z,964.55
2018-10-16T05:52:00.424Z,964.54
2018-10-16T05:53:00.363Z,964.51
2018-10-16T05:54:00.299Z,964.46
2018-10-16T05:55:00.242Z,964.48
2018-10-16T05:56:00.177Z,964.51
2018-10-16T05:57:00.106Z,964.49
2018-10-16T05:58:00.044Z,964.51
2018-10-16T05:58:59.979Z,964.53
2018-10-16T05:59:59.918Z,964.52
2018-10-16T06:00:59.851Z,964.52
2018-10-16T06:01:59.787Z,964.50
2018-10-16T06:02:59.723Z,964.51
2018-10-16T06:03:59.687Z,964.51
2018-10-16T06:04:59.595Z,964.52
2018-10-16T06:05:59.597Z,964.50
2018-10-16T06:06:59.488Z,964.57
2018-10-16T06:07:59.404Z,964.58
2018-10-16T06:08:59.342Z,964.59
2018-10-16T06:09:59.279Z,964.61
2018-10-16T06:10:59.291Z,964.65
2018-10-16T06:11:59.147Z,964.66
2018-10-16T06:12:59.084Z,964.61
2018-10-16T06:13:59.020Z,964.64
2018-10-16T06:14:58.958Z,964.65
2018-10-16T06:15:58.913Z,964.62
2018-10-16T06:16:58.834Z,964.64
2018-10-16T06:17:58.803Z,964.63
2018-10-16T06:18:58.733Z,964.63
2018-10-16T06:19:58.637Z,964.66
2018-10-16T06:20:58.576Z,964.64
2018-10-16T06:21:58.507Z,964.66
2018-10-16T06:22:58.493Z,964.62
2018-10-16T06:23:58.383Z,964.63
2018-10-16T06:24:58.317Z,964.62
2018-10-16T06:25:58.254Z,964.67
2018-10-16T06:26:58.190Z,964.66
2018-10-16T06:27:58.134Z,964.66
2018-10-16T06:28:58.066Z,964.64
2018-10-16T06:29:58.000Z,964.63
2018-10-16T06:30:57.939Z,964.63
2018-10-16T06:31:57.872Z,964.65
2018-10-16T06:32:57.809Z,964.65
2018-10-16T06:33:57.744Z,964.68
2018-10-16T06:34:57.680Z,964.67
2018-10-16T06:35:57.618Z,964.67
2018-10-16T06:36:57.555Z,964.60
2018-10-16T06:37:57.490Z,964.62
2018-10-16T06:38:57.426Z,964.62
2018-10-16T06:39:57.368Z,964.62
2018-10-16T06:40:57.460Z,964.62
2018-10-16T06:41:57.248Z,964.63
2018-10-16T06:42:57.171Z,964.68
2018-10-16T06:43:57.148Z,964.68
2018-10-16T06:44:57.045Z,964.70
2018-10-16T06:45:56.982Z,964.69
2018-10-16T06:46:56.916Z,964.70
2018-10-16T06:47:56.908Z,964.72
2018-10-16T06:48:57.073Z,964.68
2018-10-16T06:49:56.727Z,964.70
2018-10-16T06:50:56.666Z,964.70
2018-10-16T06:51:56.599Z,964.70
2018-10-16T06:52:56.537Z,964.72
2018-10-16T06:53:56.473Z,964.73
2018-10-16T06:54:56.444Z,964.73
2018-10-16T06:55:56.346Z,964.72
2018-10-16T06:56:56.283Z,964.76
2018-10-16T06:57:56.217Z,964.78
2018-10-16T06:58:56.155Z,964.80
2018-10-16T07:01:28.146Z,964.87
2018-10-16T07:02:28.055Z,964.84
2018-10-16T07:03:27.991Z,964.80
2018-10-16T07:04:27.927Z,964.81
2018-10-16T07:05:27.868Z,964.78
2018-10-16T07:06:27.862Z,964.81
2018-10-16T07:07:27.809Z,964.84
2018-10-16T07:08:27.676Z,964.82
2018-10-16T07:09:27.611Z,964.86
2018-10-16T07:10:27.573Z,964.86
2018-10-16T07:11:27.483Z,964.87
2018-10-16T07:12:27.424Z,964.90
2018-10-16T07:13:27.357Z,964.93
2018-10-16T07:14:27.311Z,964.91
2018-10-16T07:15:27.234Z,964.94
2018-10-16T07:16:27.166Z,964.95
2018-10-16T07:17:27.112Z,964.92
2018-10-16T07:18:27.065Z,964.94
2018-10-16T07:19:26.978Z,964.93
2018-10-16T07:20:26.934Z,964.94
2018-10-16T07:21:26.889Z,964.97
2018-10-16T07:22:26.789Z,964.98
2018-10-16T07:23:26.818Z,965.01
2018-10-16T07:24:26.662Z,965.03
2018-10-16T07:25:26.599Z,964.95
2018-10-16T07:26:26.536Z,964.98
2018-10-16T07:27:26.472Z,964.97
2018-10-16T07:28:26.411Z,964.96
2018-10-16T07:29:26.352Z,964.92
2018-10-16T07:30:26.284Z,964.94
2018-10-16T07:31:26.219Z,964.90
2018-10-16T07:32:26.152Z,964.91
2018-10-16T07:33:26.092Z,964.94
2018-10-16T07:34:26.035Z,964.92
2018-10-16T07:35:25.967Z,964.92
2018-10-16T07:36:25.904Z,964.95
2018-10-16T07:37:25.841Z,964.94
2018-10-16T07:38:25.800Z,964.94
2018-10-16T07:39:25.716Z,964.93
2018-10-16T07:40:25.652Z,964.93
2018-10-16T07:41:25.590Z,964.96
2018-10-16T07:42:25.527Z,964.91
2018-10-16T07:43:25.462Z,964.94
2018-10-16T07:44:25.413Z,964.93
2018-10-16T07:45:25.337Z,964.97
2018-10-16T07:46:25.279Z,964.94
2018-10-16T07:47:25.210Z,964.94
2018-10-16T07:48:25.174Z,964.95
2018-10-16T07:49:25.087Z,964.93
2018-10-16T07:50:25.022Z,964.92
2018-10-16T07:51:24.960Z,964.95
2018-10-16T07:52:24.895Z,964.94
2018-10-16T07:53:24.841Z,964.91
2018-10-16T07:54:24.770Z,964.92
2018-10-16T07:55:24.852Z,964.95
2018-10-16T07:56:24.643Z,964.95
2018-10-16T07:57:24.700Z,964.96
2018-10-16T07:58:24.520Z,964.90
2018-10-16T07:59:24.456Z,964.94
2018-10-16T08:00:24.396Z,964.95
2018-10-16T08:01:24.352Z,965.00
2018-10-16T08:02:24.269Z,964.98
2018-10-16T08:03:24.218Z,964.98
2018-10-16T08:04:24.146Z,965.01
2018-10-16T08:05:24.077Z,964.98
2018-10-16T08:06:24.018Z,964.99
2018-10-16T08:07:23.954Z,964.97
2018-10-16T08:08:23.894Z,965.00
2018-10-16T08:09:23.831Z,964.98
2018-10-16T08:10:23.768Z,964.98
2018-10-16T08:11:23.803Z,964.95
2018-10-16T08:12:23.645Z,964.98
2018-10-16T08:13:23.580Z,964.98
2018-10-16T08:14:23.518Z,965.01
2018-10-16T08:15:23.463Z,964.99
2018-10-16T08:16:23.394Z,965.02
2018-10-16T08:17:23.431Z,965.06
2018-10-16T08:18:23.270Z,965.06
2018-10-16T08:19:23.208Z,965.03
2018-10-16T08:20:23.150Z,964.99
2018-10-16T08:21:23.081Z,965.02
2018-10-16T08:22:23.021Z,964.99
2018-10-16T08:23:22.953Z,964.99
2018-10-16T08:24:22.893Z,964.94
2018-10-16T08:25:22.838Z,964.97
2018-10-16T08:26:22.782Z,964.95
2018-10-16T08:27:22.709Z,964.98
2018-10-16T08:28:22.645Z,964.95
2018-10-16T08:29:22.593Z,964.96
2018-10-16T08:30:22.523Z,964.98
2018-10-16T08:31:22.458Z,964.99
2018-10-16T08:32:22.396Z,965.00
2018-10-16T08:33:22.337Z,965.05
2018-10-16T08:34:22.274Z,965.03
2018-10-16T08:35:22.211Z,965.02
2018-10-16T08:36:22.257Z,965.05
2018-10-16T08:37:22.190Z,965.05
2018-10-16T08:38:22.024Z,965.08
2018-10-16T08:39:21.962Z,965.06
2018-10-16T08:40:21.903Z,965.04
2018-10-16T08:41:21.839Z,965.05
2018-10-16T08:42:21.777Z,965.05
2018-10-16T08:43:21.715Z,965.02
2018-10-16T08:44:21.653Z,965.06
2018-10-16T08:45:21.591Z,965.03
2018-10-16T08:46:21.530Z,965.06
2018-10-16T08:47:21.529Z,965.04
2018-10-16T08:48:21.409Z,965.05
2018-10-16T08:49:21.344Z,965.06
2018-10-16T08:50:21.283Z,965.08
2018-10-16T08:51:21.219Z,965.07
2018-10-16T08:52:21.158Z,965.09
2018-10-16T08:53:21.095Z,965.10
2018-10-16T08:54:21.035Z,965.06
2018-10-16T08:55:20.973Z,965.09
2018-10-16T08:56:20.930Z,965.10
2018-10-16T08:57:20.851Z,965.12
2018-10-16T08:58:20.788Z,965.08
2018-10-16T08:59:20.729Z,965.09
2018-10-16T09:00:20.665Z,965.10
2018-10-16T09:01:20.602Z,965.11
2018-10-16T09:02:20.550Z,965.04
2018-10-16T09:03:20.485Z,965.14
2018-10-16T09:04:20.421Z,965.07
2018-10-16T09:05:20.357Z,965.08
2018-10-16T09:06:20.296Z,965.07
2018-10-16T09:07:20.234Z,965.10
2018-10-16T09:08:20.178Z,965.11
2018-10-16T09:09:20.113Z,965.08
2018-10-16T09:10:20.053Z,965.11
2018-10-16T09:11:19.989Z,965.07
2018-10-16T09:12:19.930Z,965.12
2018-10-16T09:13:19.872Z,965.12
2018-10-16T09:14:19.817Z,965.11
2018-10-16T09:15:19.746Z,965.17
2018-10-16T09:16:19.683Z,965.14
2018-10-16T09:17:19.620Z,965.10
2018-10-16T09:18:19.561Z,965.13
2018-10-16T09:19:19.508Z,965.15
2018-10-16T09:20:19.437Z,965.18
2018-10-16T09:21:19.380Z,965.14
2018-10-16T09:22:19.321Z,965.16
2018-10-16T09:23:19.257Z,965.17
2018-10-16T09:24:19.195Z,965.13
2018-10-16T09:25:19.133Z,965.21
2018-10-16T09:26:19.073Z,965.20
2018-10-16T09:27:19.018Z,965.21
2018-10-16T09:28:18.956Z,965.24
2018-10-16T09:29:18.889Z,965.22
2018-10-16T09:30:18.828Z,965.25
2018-10-16T09:31:18.768Z,965.25
2018-10-16T09:32:18.702Z,965.25
2018-10-16T09:33:18.645Z,965.25
2018-10-16T09:34:18.592Z,965.29
2018-10-16T09:35:18.526Z,965.31
2018-10-16T09:36:18.468Z,965.28
2018-10-16T09:37:18.406Z,965.28
2018-10-16T09:38:18.346Z,965.27
2018-10-16T09:39:18.281Z,965.27
2018-10-16T09:40:18.220Z,965.27
2018-10-16T09:41:18.164Z,965.27
2018-10-16T09:42:18.099Z,965.28
2018-10-16T09:43:18.037Z,965.24
2018-10-16T09:44:17.977Z,965.28
2018-10-16T09:45:17.916Z,965.26
2018-10-16T09:46:17.859Z,965.28
2018-10-16T09:47:17.797Z,965.24
2018-10-16T09:48:17.741Z,965.27
2018-10-16T09:49:17.676Z,965.25
2018-10-16T09:50:17.616Z,965.23
2018-10-16T09:51:17.552Z,965.27
2018-10-16T09:52:17.493Z,965.28
2018-10-16T09:53:17.436Z,965.27
2018-10-16T09:54:17.372Z,965.22
2018-10-16T09:55:17.310Z,965.23
2018-10-16T09:56:17.263Z,965.26
2018-10-16T09:57:17.191Z,965.28
2018-10-16T09:58:17.132Z,965.30
2018-10-16T09:59:17.068Z,965.28
2018-10-16T10:00:17.009Z,965.31
2018-10-16T10:01:16.946Z,965.30
2018-10-16T10:02:16.892Z,965.30
2018-10-16T10:03:16.829Z,965.31
2018-10-16T10:04:16.766Z,965.30
2018-10-16T10:05:16.708Z,965.32
2018-10-16T10:06:16.648Z,965.32
2018-10-16T10:07:16.587Z,965.31
2018-10-16T10:08:16.525Z,965.31
2018-10-16T10:09:16.467Z,965.32
2018-10-16T10:10:16.408Z,965.33
2018-10-16T10:11:16.349Z,965.33
2018-10-16T10:12:16.286Z,965.34
2018-10-16T10:13:16.225Z,965.33
2018-10-16T10:14:16.166Z,965.34
2018-10-16T10:15:16.104Z,965.32
2018-10-16T10:16:16.047Z,965.31
2018-10-16T10:17:15.986Z,965.31
2018-10-16T10:18:15.925Z,965.33
2018-10-16T10:19:15.865Z,965.29
2018-10-16T10:20:15.806Z,965.30
2018-10-16T10:21:15.748Z,965.37
2018-10-16T10:22:15.688Z,965.28
2018-10-16T10:23:15.632Z,965.29
2018-10-16T10:24:15.566Z,965.34
2018-10-16T10:25:15.545Z,965.31
2018-10-16T10:26:15.447Z,965.28
2018-10-16T10:27:15.388Z,965.29
2018-10-16T10:28:15.328Z,965.28
2018-10-16T10:29:15.271Z,965.27
2018-10-16T10:30:15.210Z,965.29
2018-10-16T10:31:15.148Z,965.27
2018-10-16T10:32:15.086Z,965.30
2018-10-16T10:33:15.029Z,965.28
2018-10-16T10:34:14.968Z,965.27
2018-10-16T10:35:14.915Z,965.29
2018-10-16T10:36:14.852Z,965.25
2018-10-16T10:37:14.790Z,965.24
2018-10-16T10:38:14.731Z,965.26
2018-10-16T10:39:14.670Z,965.23
2018-10-16T10:40:14.611Z,965.22
2018-10-16T10:41:14.554Z,965.23
2018-10-16T10:42:14.583Z,965.20
2018-10-16T10:43:14.431Z,965.20
2018-10-16T10:44:14.401Z,965.17
2018-10-16T10:45:14.323Z,965.16
2018-10-16T10:46:14.252Z,965.18
2018-10-16T10:47:14.206Z,965.16
2018-10-16T10:48:14.165Z,965.15
2018-10-16T10:49:14.134Z,965.16
2018-10-16T10:54:25.311Z,965.09
2018-10-16T10:55:04.241Z,965.10
2018-10-16T10:56:04.181Z,965.07
2018-10-16T10:57:04.285Z,965.07
2018-10-16T10:58:04.098Z,965.12
2018-10-16T10:59:04.003Z,965.09
2018-10-16T11:00:03.945Z,965.07
2018-10-16T11:01:03.886Z,965.07
2018-10-16T11:02:03.820Z,965.09
2018-10-16T11:03:03.783Z,965.05
2018-10-16T11:04:03.723Z,965.05
2018-10-16T11:05:03.646Z,965.04
2018-10-16T11:06:03.590Z,965.00
2018-10-16T11:07:03.530Z,965.03
2018-10-16T11:08:03.502Z,965.02
2018-10-16T11:09:03.441Z,965.01
2018-10-16T11:10:03.374Z,965.03
2018-10-16T11:11:03.294Z,965.03
2018-10-16T11:12:03.238Z,965.03
2018-10-16T11:13:03.173Z,965.04
2018-10-16T11:14:03.124Z,965.03
2018-10-16T11:15:03.129Z,965.00
2018-10-16T11:16:02.994Z,965.01
2018-10-16T11:17:02.940Z,965.00
2018-10-16T11:18:02.880Z,964.97
2018-10-16T11:19:02.814Z,965.00
2018-10-16T11:20:02.771Z,965.02
2018-10-16T11:21:02.751Z,964.98
2018-10-16T11:22:02.668Z,964.96
2018-10-16T11:23:02.588Z,965.02
2018-10-16T11:24:02.533Z,964.98
2018-10-16T11:25:02.482Z,964.95
2018-10-16T11:26:02.400Z,964.96
2018-10-16T11:27:02.412Z,964.94
2018-10-16T11:28:02.286Z,964.89
2018-10-16T11:29:02.221Z,964.91
2018-10-16T11:30:02.226Z,964.93
2018-10-16T11:31:02.118Z,964.91
2018-10-16T11:32:02.061Z,964.92
2018-10-16T11:33:02.059Z,964.92
2018-10-16T11:34:01.931Z,964.93
2018-10-16T11:35:01.892Z,964.92
2018-10-16T11:36:01.808Z,964.93
2018-10-16T11:37:01.829Z,964.90
2018-10-16T11:38:01.694Z,964.91
2018-10-16T11:39:01.650Z,964.90
2018-10-16T11:40:01.578Z,964.89
2018-10-16T11:41:01.530Z,964.92
2018-10-16T11:42:01.462Z,964.90
2018-10-16T11:43:01.396Z,964.90
2018-10-16T11:44:01.352Z,964.92
2018-10-16T11:45:01.329Z,964.90
2018-10-16T11:46:01.229Z,964.89
2018-10-16T11:47:01.161Z,964.85
2018-10-16T11:48:01.119Z,964.87
2018-10-16T11:49:01.083Z,964.86
2018-10-16T11:50:01.007Z,964.91
2018-10-16T11:51:00.931Z,964.88
2018-10-16T11:52:00.935Z,964.89
2018-10-16T11:53:00.813Z,964.90
2018-10-16T11:54:00.794Z,964.88
2018-10-16T11:55:00.697Z,964.84
2018-10-16T11:56:00.706Z,964.86
2018-10-16T11:57:00.615Z,964.84
2018-10-16T11:58:00.537Z,964.88
2018-10-16T11:59:00.476Z,964.86
2018-10-16T12:00:00.421Z,964.84
2018-10-16T12:01:00.338Z,964.89
2018-10-16T12:02:00.328Z,964.85
2018-10-16T12:03:00.226Z,964.83
2018-10-16T12:04:00.167Z,964.89
2018-10-16T12:05:00.108Z,964.88
2018-10-16T12:06:00.167Z,964.87
2018-10-16T12:07:00.072Z,964.84
2018-10-16T12:07:59.973Z,964.86
2018-10-16T12:08:59.889Z,964.88
2018-10-16T12:09:59.819Z,964.87
2018-10-16T12:10:59.797Z,964.85
2018-10-16T12:11:59.697Z,964.84
2018-10-16T12:12:59.680Z,964.87
2018-10-16T12:13:59.642Z,964.82
2018-10-16T12:14:59.524Z,964.81
2018-10-16T12:15:59.497Z,964.82
2018-10-16T12:16:59.406Z,964.79
2018-10-16T12:17:59.365Z,964.82
2018-10-16T12:18:59.303Z,964.81
2018-10-16T12:19:59.342Z,964.75
2018-10-16T12:20:59.222Z,964.81
2018-10-16T12:21:59.112Z,964.77
2018-10-16T12:22:59.059Z,964.76
2018-10-16T12:23:58.999Z,964.77
2018-10-16T12:24:59.005Z,964.74
2018-10-16T12:25:58.880Z,964.75
2018-10-16T12:26:58.875Z,964.76
2018-10-16T12:27:58.769Z,964.74
2018-10-16T12:28:58.738Z,964.72
2018-10-16T12:29:58.648Z,964.73
2018-10-16T12:30:58.659Z,964.73
2018-10-16T12:31:58.602Z,964.73
2018-10-16T12:32:58.561Z,964.73
2018-10-16T12:33:58.413Z,964.72